sensor_id;sensor_type;location;lat;lon;timestamp;temperature;humidity
2407;DHT22;37709;53.480;9.688;2022-12-24T00:01:07;4.80;99.90
2407;DHT22;37709;53.480;9.688;2022-12-24T00:03:38;4.80;99.90
2407;DHT22;37709;53.480;9.688;2022-12-24T00:06:07;4.80;99.90
2407;DHT22;37709;53.480;9.688;2022-12-24T00:08:35;4.80;99.90
2407;DHT22;37709;53.480;9.688;2022-12-24T00:11:02;4.80;99.90
2407;DHT22;37709;53.480;9.688;2022-12-24T00:13:29;4.80;99.90
2407;DHT22;37709;53.480;9.688;2022-12-24T00:15:57;4.90;99.90
2407;DHT22;37709;53.480;9.688;2022-12-24T00:18:24;4.90;99.90
2407;DHT22;37709;53.480;9.688;2022-12-24T00:20:52;4.90;99.90
2407;DHT22;37709;53.480;9.688;2022-12-24T00:23:19;4.90;99.90
2407;DHT22;37709;53.480;9.688;2022-12-24T00:25:47;4.90;99.90
2407;DHT22;37709;53.480;9.688;2022-12-24T00:28:16;4.80;99.90
2407;DHT22;37709;53.480;9.688;2022-12-24T00:30:43;4.90;99.90
2407;DHT22;37709;53.480;9.688;2022-12-24T00:33:10;4.90;99.90
2407;DHT22;37709;53.480;9.688;2022-12-24T00:35:39;4.90;99.90
2407;DHT22;37709;53.480;9.688;2022-12-24T00:38:07;4.90;99.90
2407;DHT22;37709;53.480;9.688;2022-12-24T00:40:35;4.90;99.90
2407;DHT22;37709;53.480;9.688;2022-12-24T00:43:03;4.90;99.90
2407;DHT22;37709;53.480;9.688;2022-12-24T00:45:30;4.90;99.90
2407;DHT22;37709;53.480;9.688;2022-12-24T00:47:58;4.80;99.90
2407;DHT22;37709;53.480;9.688;2022-12-24T00:50:25;4.80;99.90
2407;DHT22;37709;53.480;9.688;2022-12-24T00:52:52;4.80;99.90
2407;DHT22;37709;53.480;9.688;2022-12-24T00:55:20;4.80;99.90
2407;DHT22;37709;53.480;9.688;2022-12-24T00:57:47;4.80;99.90
2407;DHT22;37709;53.480;9.688;2022-12-24T01:00:15;4.80;99.90
2407;DHT22;37709;53.480;9.688;2022-12-24T01:02:44;4.80;99.90
2407;DHT22;37709;53.480;9.688;2022-12-24T01:05:12;4.80;99.90
2407;DHT22;37709;53.480;9.688;2022-12-24T01:07:42;4.80;99.90
2407;DHT22;37709;53.480;9.688;2022-12-24T01:10:15;4.80;99.90
2407;DHT22;37709;53.480;9.688;2022-12-24T01:12:43;4.80;99.90
2407;DHT22;37709;53.480;9.688;2022-12-24T01:15:12;4.80;99.90
2407;DHT22;37709;53.480;9.688;2022-12-24T01:17:41;4.80;99.90
2407;DHT22;37709;53.480;9.688;2022-12-24T01:20:13;4.80;99.90
2407;DHT22;37709;53.480;9.688;2022-12-24T01:22:41;4.80;99.90
2407;DHT22;37709;53.480;9.688;2022-12-24T01:25:09;4.80;99.90
2407;DHT22;37709;53.480;9.688;2022-12-24T01:27:36;4.80;99.90
2407;DHT22;37709;53.480;9.688;2022-12-24T01:30:06;4.80;99.90
2407;DHT22;37709;53.480;9.688;2022-12-24T01:32:34;4.70;99.90
2407;DHT22;37709;53.480;9.688;2022-12-24T01:35:02;4.70;99.90
2407;DHT22;37709;53.480;9.688;2022-12-24T01:37:30;4.80;99.90
2407;DHT22;37709;53.480;9.688;2022-12-24T01:39:57;4.80;99.90
2407;DHT22;37709;53.480;9.688;2022-12-24T01:42:46;4.80;99.90
2407;DHT22;37709;53.480;9.688;2022-12-24T01:45:41;4.70;99.90
2407;DHT22;37709;53.480;9.688;2022-12-24T01:48:41;4.70;99.90
2407;DHT22;37709;53.480;9.688;2022-12-24T01:51:26;4.70;99.90
2407;DHT22;37709;53.480;9.688;2022-12-24T01:54:04;4.70;99.90
2407;DHT22;37709;53.480;9.688;2022-12-24T01:56:34;4.70;99.90
2407;DHT22;37709;53.480;9.688;2022-12-24T01:59:06;4.70;99.90
2407;DHT22;37709;53.480;9.688;2022-12-24T02:01:36;4.70;99.90
2407;DHT22;37709;53.480;9.688;2022-12-24T02:04:11;4.70;99.90
2407;DHT22;37709;53.480;9.688;2022-12-24T02:06:42;4.70;99.90
2407;DHT22;37709;53.480;9.688;2022-12-24T02:09:09;4.70;99.90
2407;DHT22;37709;53.480;9.688;2022-12-24T02:11:38;4.70;99.90
2407;DHT22;37709;53.480;9.688;2022-12-24T02:14:07;4.70;99.90
2407;DHT22;37709;53.480;9.688;2022-12-24T02:16:49;4.70;99.90
2407;DHT22;37709;53.480;9.688;2022-12-24T02:22:52;4.70;99.90
2407;DHT22;37709;53.480;9.688;2022-12-24T02:31:26;4.70;99.90
2407;DHT22;37709;53.480;9.688;2022-12-24T02:34:14;4.70;99.90
2407;DHT22;37709;53.480;9.688;2022-12-24T02:39:37;4.70;99.90
2407;DHT22;37709;53.480;9.688;2022-12-24T02:42:07;4.70;99.90
2407;DHT22;37709;53.480;9.688;2022-12-24T02:45:03;4.70;99.90
2407;DHT22;37709;53.480;9.688;2022-12-24T02:47:32;4.70;99.90
2407;DHT22;37709;53.480;9.688;2022-12-24T02:50:01;4.60;99.90
2407;DHT22;37709;53.480;9.688;2022-12-24T02:52:33;4.60;99.90
2407;DHT22;37709;53.480;9.688;2022-12-24T02:55:21;4.60;99.90
2407;DHT22;37709;53.480;9.688;2022-12-24T03:01:25;4.60;99.90
2407;DHT22;37709;53.480;9.688;2022-12-24T03:04:08;4.60;99.90
2407;DHT22;37709;53.480;9.688;2022-12-24T03:06:53;4.60;99.90
2407;DHT22;37709;53.480;9.688;2022-12-24T03:09:33;4.60;99.90
2407;DHT22;37709;53.480;9.688;2022-12-24T03:12:38;4.60;99.90
2407;DHT22;37709;53.480;9.688;2022-12-24T03:15:08;4.60;99.90
2407;DHT22;37709;53.480;9.688;2022-12-24T03:17:37;4.60;99.90
2407;DHT22;37709;53.480;9.688;2022-12-24T03:20:06;4.60;99.90
2407;DHT22;37709;53.480;9.688;2022-12-24T03:22:35;4.60;99.90
2407;DHT22;37709;53.480;9.688;2022-12-24T03:25:02;4.60;99.90
2407;DHT22;37709;53.480;9.688;2022-12-24T03:27:31;4.60;99.90
2407;DHT22;37709;53.480;9.688;2022-12-24T03:30:00;4.60;99.90
2407;DHT22;37709;53.480;9.688;2022-12-24T03:32:30;4.60;99.90
2407;DHT22;37709;53.480;9.688;2022-12-24T03:34:58;4.60;99.90
2407;DHT22;37709;53.480;9.688;2022-12-24T03:37:25;4.60;99.90
2407;DHT22;37709;53.480;9.688;2022-12-24T03:39:53;4.60;99.90
2407;DHT22;37709;53.480;9.688;2022-12-24T03:42:20;4.60;99.90
2407;DHT22;37709;53.480;9.688;2022-12-24T03:44:48;4.60;99.90
2407;DHT22;37709;53.480;9.688;2022-12-24T03:47:15;4.60;99.90
2407;DHT22;37709;53.480;9.688;2022-12-24T03:49:42;4.60;99.90
2407;DHT22;37709;53.480;9.688;2022-12-24T03:52:09;4.60;99.90
2407;DHT22;37709;53.480;9.688;2022-12-24T03:54:37;4.60;99.90
2407;DHT22;37709;53.480;9.688;2022-12-24T03:57:05;4.60;99.90
2407;DHT22;37709;53.480;9.688;2022-12-24T03:59:32;4.60;99.90
2407;DHT22;37709;53.480;9.688;2022-12-24T04:02:00;4.60;99.90
2407;DHT22;37709;53.480;9.688;2022-12-24T04:04:27;4.60;99.90
2407;DHT22;37709;53.480;9.688;2022-12-24T04:06:54;4.60;99.90
2407;DHT22;37709;53.480;9.688;2022-12-24T04:09:22;4.60;99.90
2407;DHT22;37709;53.480;9.688;2022-12-24T04:11:49;4.60;99.90
2407;DHT22;37709;53.480;9.688;2022-12-24T04:14:17;4.60;99.90
2407;DHT22;37709;53.480;9.688;2022-12-24T04:16:44;4.60;99.90
2407;DHT22;37709;53.480;9.688;2022-12-24T04:19:12;4.60;99.90
2407;DHT22;37709;53.480;9.688;2022-12-24T04:21:39;4.60;99.90
2407;DHT22;37709;53.480;9.688;2022-12-24T04:24:06;4.60;99.90
2407;DHT22;37709;53.480;9.688;2022-12-24T04:26:33;4.60;99.90
2407;DHT22;37709;53.480;9.688;2022-12-24T04:29:01;4.60;99.90
2407;DHT22;37709;53.480;9.688;2022-12-24T04:31:28;4.60;99.90
2407;DHT22;37709;53.480;9.688;2022-12-24T04:33:55;4.60;99.90
2407;DHT22;37709;53.480;9.688;2022-12-24T04:36:23;4.60;99.90
2407;DHT22;37709;53.480;9.688;2022-12-24T04:38:50;4.60;99.90
2407;DHT22;37709;53.480;9.688;2022-12-24T04:41:20;4.60;99.90
2407;DHT22;37709;53.480;9.688;2022-12-24T04:43:52;4.60;99.90
2407;DHT22;37709;53.480;9.688;2022-12-24T04:46:22;4.60;99.90
2407;DHT22;37709;53.480;9.688;2022-12-24T04:48:51;4.60;99.90
2407;DHT22;37709;53.480;9.688;2022-12-24T04:51:20;4.60;99.90
2407;DHT22;37709;53.480;9.688;2022-12-24T04:53:47;4.60;99.90
2407;DHT22;37709;53.480;9.688;2022-12-24T04:56:17;4.60;99.90
2407;DHT22;37709;53.480;9.688;2022-12-24T04:58:46;4.60;99.90
2407;DHT22;37709;53.480;9.688;2022-12-24T05:01:19;4.60;99.90
2407;DHT22;37709;53.480;9.688;2022-12-24T05:03:47;4.60;99.90
2407;DHT22;37709;53.480;9.688;2022-12-24T05:06:18;4.60;99.90
2407;DHT22;37709;53.480;9.688;2022-12-24T05:08:46;4.60;99.90
2407;DHT22;37709;53.480;9.688;2022-12-24T05:11:13;4.60;99.90
2407;DHT22;37709;53.480;9.688;2022-12-24T05:13:42;4.60;99.90
2407;DHT22;37709;53.480;9.688;2022-12-24T05:16:15;4.50;99.90
2407;DHT22;37709;53.480;9.688;2022-12-24T05:18:43;4.60;99.90
2407;DHT22;37709;53.480;9.688;2022-12-24T05:21:13;4.50;99.90
2407;DHT22;37709;53.480;9.688;2022-12-24T05:23:42;4.50;99.90
2407;DHT22;37709;53.480;9.688;2022-12-24T05:29:05;4.50;99.90
2407;DHT22;37709;53.480;9.688;2022-12-24T05:31:33;4.50;99.90
2407;DHT22;37709;53.480;9.688;2022-12-24T05:34:01;4.50;99.90
2407;DHT22;37709;53.480;9.688;2022-12-24T05:36:29;4.50;99.90
2407;DHT22;37709;53.480;9.688;2022-12-24T05:38:57;4.50;99.90
2407;DHT22;37709;53.480;9.688;2022-12-24T05:41:25;4.50;99.90
2407;DHT22;37709;53.480;9.688;2022-12-24T05:43:52;4.50;99.90
2407;DHT22;37709;53.480;9.688;2022-12-24T05:46:20;4.50;99.90
2407;DHT22;37709;53.480;9.688;2022-12-24T05:48:49;4.50;99.90
2407;DHT22;37709;53.480;9.688;2022-12-24T05:51:18;4.50;99.90
2407;DHT22;37709;53.480;9.688;2022-12-24T05:53:49;4.50;99.90
2407;DHT22;37709;53.480;9.688;2022-12-24T05:56:21;4.50;99.90
2407;DHT22;37709;53.480;9.688;2022-12-24T05:58:50;4.50;99.90
2407;DHT22;37709;53.480;9.688;2022-12-24T06:01:19;4.50;99.90
2407;DHT22;37709;53.480;9.688;2022-12-24T06:03:47;4.50;99.90
2407;DHT22;37709;53.480;9.688;2022-12-24T06:06:23;4.50;99.90
2407;DHT22;37709;53.480;9.688;2022-12-24T06:08:52;4.50;99.90
2407;DHT22;37709;53.480;9.688;2022-12-24T06:11:23;4.50;99.90
2407;DHT22;37709;53.480;9.688;2022-12-24T06:13:52;4.50;99.90
2407;DHT22;37709;53.480;9.688;2022-12-24T06:16:20;4.50;99.90
2407;DHT22;37709;53.480;9.688;2022-12-24T06:18:49;4.50;99.90
2407;DHT22;37709;53.480;9.688;2022-12-24T06:21:16;4.50;99.90
2407;DHT22;37709;53.480;9.688;2022-12-24T06:23:45;4.50;99.90
2407;DHT22;37709;53.480;9.688;2022-12-24T06:26:15;4.50;99.90
2407;DHT22;37709;53.480;9.688;2022-12-24T06:28:44;4.50;99.90
2407;DHT22;37709;53.480;9.688;2022-12-24T06:31:14;4.50;99.90
2407;DHT22;37709;53.480;9.688;2022-12-24T06:33:42;4.50;99.90
2407;DHT22;37709;53.480;9.688;2022-12-24T06:36:14;4.50;99.90
2407;DHT22;37709;53.480;9.688;2022-12-24T06:38:46;4.50;99.90
2407;DHT22;37709;53.480;9.688;2022-12-24T06:41:15;4.50;99.90
2407;DHT22;37709;53.480;9.688;2022-12-24T06:43:47;4.50;99.90
2407;DHT22;37709;53.480;9.688;2022-12-24T06:46:15;4.50;99.90
2407;DHT22;37709;53.480;9.688;2022-12-24T06:48:44;4.50;99.90
2407;DHT22;37709;53.480;9.688;2022-12-24T06:51:13;4.50;99.90
2407;DHT22;37709;53.480;9.688;2022-12-24T06:53:40;4.50;99.90
2407;DHT22;37709;53.480;9.688;2022-12-24T06:56:10;4.50;99.90
2407;DHT22;37709;53.480;9.688;2022-12-24T06:58:39;4.50;99.90
2407;DHT22;37709;53.480;9.688;2022-12-24T07:01:09;4.50;99.90
2407;DHT22;37709;53.480;9.688;2022-12-24T07:03:39;4.50;99.90
2407;DHT22;37709;53.480;9.688;2022-12-24T07:06:07;4.60;99.90
2407;DHT22;37709;53.480;9.688;2022-12-24T07:08:37;4.50;99.90
2407;DHT22;37709;53.480;9.688;2022-12-24T07:11:04;4.60;99.90
2407;DHT22;37709;53.480;9.688;2022-12-24T07:13:31;4.60;99.90
2407;DHT22;37709;53.480;9.688;2022-12-24T07:16:01;4.60;99.90
2407;DHT22;37709;53.480;9.688;2022-12-24T07:18:30;4.60;99.90
2407;DHT22;37709;53.480;9.688;2022-12-24T07:20:58;4.60;99.90
2407;DHT22;37709;53.480;9.688;2022-12-24T07:23:26;4.60;99.90
2407;DHT22;37709;53.480;9.688;2022-12-24T07:25:53;4.60;99.90
2407;DHT22;37709;53.480;9.688;2022-12-24T07:28:21;4.60;99.90
2407;DHT22;37709;53.480;9.688;2022-12-24T07:30:55;4.60;99.90
2407;DHT22;37709;53.480;9.688;2022-12-24T07:33:24;4.60;99.90
2407;DHT22;37709;53.480;9.688;2022-12-24T07:35:59;4.60;99.90
2407;DHT22;37709;53.480;9.688;2022-12-24T07:38:27;4.60;99.90
2407;DHT22;37709;53.480;9.688;2022-12-24T07:40:55;4.60;99.90
2407;DHT22;37709;53.480;9.688;2022-12-24T07:43:23;4.60;99.90
2407;DHT22;37709;53.480;9.688;2022-12-24T07:45:54;4.60;99.90
2407;DHT22;37709;53.480;9.688;2022-12-24T07:48:21;4.60;99.90
2407;DHT22;37709;53.480;9.688;2022-12-24T07:50:50;4.60;99.90
2407;DHT22;37709;53.480;9.688;2022-12-24T07:53:18;4.60;99.90
2407;DHT22;37709;53.480;9.688;2022-12-24T07:55:46;4.60;99.90
2407;DHT22;37709;53.480;9.688;2022-12-24T07:58:14;4.60;99.90
2407;DHT22;37709;53.480;9.688;2022-12-24T08:00:41;4.70;99.90
2407;DHT22;37709;53.480;9.688;2022-12-24T08:03:16;4.70;99.90
2407;DHT22;37709;53.480;9.688;2022-12-24T08:05:44;4.70;99.90
2407;DHT22;37709;53.480;9.688;2022-12-24T08:08:11;4.70;99.90
2407;DHT22;37709;53.480;9.688;2022-12-24T08:10:40;4.70;99.90
2407;DHT22;37709;53.480;9.688;2022-12-24T08:13:08;4.80;99.90
2407;DHT22;37709;53.480;9.688;2022-12-24T08:15:35;4.80;99.90
2407;DHT22;37709;53.480;9.688;2022-12-24T08:18:03;4.80;99.90
2407;DHT22;37709;53.480;9.688;2022-12-24T08:20:31;4.80;99.90
2407;DHT22;37709;53.480;9.688;2022-12-24T08:22:58;4.80;99.90
2407;DHT22;37709;53.480;9.688;2022-12-24T08:25:29;4.90;99.90
2407;DHT22;37709;53.480;9.688;2022-12-24T08:27:56;4.90;99.90
2407;DHT22;37709;53.480;9.688;2022-12-24T08:30:23;4.90;99.90
2407;DHT22;37709;53.480;9.688;2022-12-24T08:32:51;4.90;99.90
2407;DHT22;37709;53.480;9.688;2022-12-24T08:35:19;4.90;99.90
2407;DHT22;37709;53.480;9.688;2022-12-24T08:37:47;4.90;99.90
2407;DHT22;37709;53.480;9.688;2022-12-24T08:40:14;4.90;99.90
2407;DHT22;37709;53.480;9.688;2022-12-24T08:42:41;5.00;99.90
2407;DHT22;37709;53.480;9.688;2022-12-24T08:45:09;5.00;99.90
2407;DHT22;37709;53.480;9.688;2022-12-24T08:47:37;5.00;99.90
2407;DHT22;37709;53.480;9.688;2022-12-24T08:50:06;5.00;99.90
2407;DHT22;37709;53.480;9.688;2022-12-24T08:52:33;5.10;99.90
2407;DHT22;37709;53.480;9.688;2022-12-24T08:55:01;5.10;99.90
2407;DHT22;37709;53.480;9.688;2022-12-24T08:57:28;5.10;99.90
2407;DHT22;37709;53.480;9.688;2022-12-24T08:59:56;5.10;99.90
2407;DHT22;37709;53.480;9.688;2022-12-24T09:02:23;5.10;99.90
2407;DHT22;37709;53.480;9.688;2022-12-24T09:04:51;5.10;99.90
2407;DHT22;37709;53.480;9.688;2022-12-24T09:07:18;5.10;99.90
2407;DHT22;37709;53.480;9.688;2022-12-24T09:09:46;5.10;99.90
2407;DHT22;37709;53.480;9.688;2022-12-24T09:12:13;5.10;99.90
2407;DHT22;37709;53.480;9.688;2022-12-24T09:14:40;5.10;99.90
2407;DHT22;37709;53.480;9.688;2022-12-24T09:17:08;5.10;99.90
2407;DHT22;37709;53.480;9.688;2022-12-24T09:19:35;5.10;99.90
2407;DHT22;37709;53.480;9.688;2022-12-24T09:22:02;5.20;99.90
2407;DHT22;37709;53.480;9.688;2022-12-24T09:24:29;5.20;99.90
2407;DHT22;37709;53.480;9.688;2022-12-24T09:26:57;5.20;99.90
2407;DHT22;37709;53.480;9.688;2022-12-24T09:29:25;5.30;99.90
2407;DHT22;37709;53.480;9.688;2022-12-24T09:31:52;5.30;99.90
2407;DHT22;37709;53.480;9.688;2022-12-24T09:34:21;5.30;99.90
2407;DHT22;37709;53.480;9.688;2022-12-24T09:36:56;5.30;99.90
2407;DHT22;37709;53.480;9.688;2022-12-24T09:39:23;5.40;99.90
2407;DHT22;37709;53.480;9.688;2022-12-24T09:47:36;5.60;99.90
2407;DHT22;37709;53.480;9.688;2022-12-24T09:50:38;5.60;99.90
2407;DHT22;37709;53.480;9.688;2022-12-24T09:53:25;5.60;99.90
2407;DHT22;37709;53.480;9.688;2022-12-24T09:55:57;5.70;99.90
2407;DHT22;37709;53.480;9.688;2022-12-24T09:58:30;5.80;99.90
2407;DHT22;37709;53.480;9.688;2022-12-24T10:00:59;5.90;99.90
2407;DHT22;37709;53.480;9.688;2022-12-24T10:03:27;6.00;99.90
2407;DHT22;37709;53.480;9.688;2022-12-24T10:06:23;6.10;99.90
2407;DHT22;37709;53.480;9.688;2022-12-24T10:09:15;6.10;99.90
2407;DHT22;37709;53.480;9.688;2022-12-24T10:22:25;6.00;99.90
2407;DHT22;37709;53.480;9.688;2022-12-24T10:27:29;6.10;99.90
2407;DHT22;37709;53.480;9.688;2022-12-24T10:30:03;6.20;99.90
2407;DHT22;37709;53.480;9.688;2022-12-24T10:32:32;6.40;99.90
2407;DHT22;37709;53.480;9.688;2022-12-24T10:35:07;6.20;99.90
2407;DHT22;37709;53.480;9.688;2022-12-24T10:37:43;6.20;99.90
2407;DHT22;37709;53.480;9.688;2022-12-24T10:40:25;6.40;99.90
2407;DHT22;37709;53.480;9.688;2022-12-24T10:42:54;6.40;99.90
2407;DHT22;37709;53.480;9.688;2022-12-24T10:45:23;6.50;99.90
2407;DHT22;37709;53.480;9.688;2022-12-24T10:47:56;6.40;99.90
2407;DHT22;37709;53.480;9.688;2022-12-24T10:50:35;6.50;99.90
2407;DHT22;37709;53.480;9.688;2022-12-24T10:53:18;6.50;99.90
2407;DHT22;37709;53.480;9.688;2022-12-24T10:55:47;6.50;99.90
2407;DHT22;37709;53.480;9.688;2022-12-24T10:58:18;6.80;99.90
2407;DHT22;37709;53.480;9.688;2022-12-24T11:00:50;7.00;99.90
2407;DHT22;37709;53.480;9.688;2022-12-24T11:05:45;7.20;99.90
2407;DHT22;37709;53.480;9.688;2022-12-24T11:10:53;7.40;99.90
2407;DHT22;37709;53.480;9.688;2022-12-24T11:14:13;7.90;99.90
2407;DHT22;37709;53.480;9.688;2022-12-24T11:16:46;7.90;99.90
2407;DHT22;37709;53.480;9.688;2022-12-24T11:19:17;8.00;99.90
2407;DHT22;37709;53.480;9.688;2022-12-24T11:21:45;8.40;99.90
2407;DHT22;37709;53.480;9.688;2022-12-24T11:26:41;11.10;99.90
2407;DHT22;37709;53.480;9.688;2022-12-24T11:29:25;12.90;99.90
2407;DHT22;37709;53.480;9.688;2022-12-24T11:32:15;13.80;99.90
2407;DHT22;37709;53.480;9.688;2022-12-24T11:34:43;14.50;99.90
2407;DHT22;37709;53.480;9.688;2022-12-24T11:37:17;14.70;99.90
2407;DHT22;37709;53.480;9.688;2022-12-24T11:39:54;15.70;99.90
2407;DHT22;37709;53.480;9.688;2022-12-24T11:42:32;16.80;99.90
2407;DHT22;37709;53.480;9.688;2022-12-24T11:45:04;17.30;99.90
2407;DHT22;37709;53.480;9.688;2022-12-24T11:47:38;17.30;99.90
2407;DHT22;37709;53.480;9.688;2022-12-24T11:50:25;17.90;99.90
2407;DHT22;37709;53.480;9.688;2022-12-24T12:00:47;14.10;99.90
2407;DHT22;37709;53.480;9.688;2022-12-24T12:03:29;12.70;99.90
2407;DHT22;37709;53.480;9.688;2022-12-24T12:06:01;11.90;99.90
2407;DHT22;37709;53.480;9.688;2022-12-24T12:08:30;11.70;99.90
2407;DHT22;37709;53.480;9.688;2022-12-24T12:10:58;11.40;99.90
2407;DHT22;37709;53.480;9.688;2022-12-24T12:13:31;10.80;99.90
2407;DHT22;37709;53.480;9.688;2022-12-24T12:16:13;10.50;99.90
2407;DHT22;37709;53.480;9.688;2022-12-24T12:19:01;10.40;99.90
2407;DHT22;37709;53.480;9.688;2022-12-24T12:21:39;10.60;99.90
2407;DHT22;37709;53.480;9.688;2022-12-24T12:24:23;11.80;99.90
2407;DHT22;37709;53.480;9.688;2022-12-24T12:27:18;11.60;99.90
2407;DHT22;37709;53.480;9.688;2022-12-24T12:29:51;11.70;99.90
2407;DHT22;37709;53.480;9.688;2022-12-24T12:32:56;12.20;99.90
2407;DHT22;37709;53.480;9.688;2022-12-24T12:35:35;11.90;99.90
2407;DHT22;37709;53.480;9.688;2022-12-24T12:38:11;11.50;99.90
2407;DHT22;37709;53.480;9.688;2022-12-24T12:43:40;10.30;99.90
2407;DHT22;37709;53.480;9.688;2022-12-24T12:54:48;9.10;99.90
2407;DHT22;37709;53.480;9.688;2022-12-24T12:57:23;9.00;99.90
2407;DHT22;37709;53.480;9.688;2022-12-24T13:00:07;9.00;99.90
2407;DHT22;37709;53.480;9.688;2022-12-24T13:10:50;10.40;99.90
2407;DHT22;37709;53.480;9.688;2022-12-24T13:16:07;9.40;99.90
2407;DHT22;37709;53.480;9.688;2022-12-24T13:18:54;9.20;99.90
2407;DHT22;37709;53.480;9.688;2022-12-24T13:21:26;9.40;99.90
2407;DHT22;37709;53.480;9.688;2022-12-24T13:24:24;9.50;99.90
2407;DHT22;37709;53.480;9.688;2022-12-24T13:27:18;9.40;99.90
2407;DHT22;37709;53.480;9.688;2022-12-24T13:35:22;9.50;99.90
2407;DHT22;37709;53.480;9.688;2022-12-24T13:37:50;9.50;99.90
2407;DHT22;37709;53.480;9.688;2022-12-24T13:40:23;9.40;99.90
2407;DHT22;37709;53.480;9.688;2022-12-24T13:50:37;9.30;99.90
2407;DHT22;37709;53.480;9.688;2022-12-24T13:53:21;9.20;99.90
2407;DHT22;37709;53.480;9.688;2022-12-24T13:55:55;9.30;99.90
2407;DHT22;37709;53.480;9.688;2022-12-24T13:58:23;9.30;99.90
2407;DHT22;37709;53.480;9.688;2022-12-24T14:00:57;9.20;99.90
2407;DHT22;37709;53.480;9.688;2022-12-24T14:03:45;9.30;99.90
2407;DHT22;37709;53.480;9.688;2022-12-24T14:08:49;9.20;99.90
2407;DHT22;37709;53.480;9.688;2022-12-24T14:11:20;9.20;99.90
2407;DHT22;37709;53.480;9.688;2022-12-24T14:16:23;8.90;99.90
2407;DHT22;37709;53.480;9.688;2022-12-24T14:19:03;8.90;99.90
2407;DHT22;37709;53.480;9.688;2022-12-24T14:22:13;8.80;99.90
2407;DHT22;37709;53.480;9.688;2022-12-24T14:24:34;8.70;99.90
2407;DHT22;37709;53.480;9.688;2022-12-24T14:27:13;8.60;99.90
2407;DHT22;37709;53.480;9.688;2022-12-24T14:30:03;8.70;99.90
2407;DHT22;37709;53.480;9.688;2022-12-24T14:32:37;8.50;99.90
2407;DHT22;37709;53.480;9.688;2022-12-24T14:35:29;8.40;99.90
2407;DHT22;37709;53.480;9.688;2022-12-24T14:38:07;8.30;99.90
2407;DHT22;37709;53.480;9.688;2022-12-24T14:46:59;8.10;99.90
2407;DHT22;37709;53.480;9.688;2022-12-24T14:50:03;8.10;99.90
2407;DHT22;37709;53.480;9.688;2022-12-24T14:52:47;8.20;99.90
2407;DHT22;37709;53.480;9.688;2022-12-24T14:55:42;8.20;99.90
2407;DHT22;37709;53.480;9.688;2022-12-24T14:58:25;8.20;99.90
2407;DHT22;37709;53.480;9.688;2022-12-24T15:01:02;8.20;99.90
2407;DHT22;37709;53.480;9.688;2022-12-24T15:03:31;8.30;99.90
2407;DHT22;37709;53.480;9.688;2022-12-24T15:06:04;8.30;99.90
2407;DHT22;37709;53.480;9.688;2022-12-24T15:08:43;8.20;99.90
2407;DHT22;37709;53.480;9.688;2022-12-24T15:11:18;8.30;99.90
2407;DHT22;37709;53.480;9.688;2022-12-24T15:13:51;8.20;99.90
2407;DHT22;37709;53.480;9.688;2022-12-24T15:16:25;8.20;99.90
2407;DHT22;37709;53.480;9.688;2022-12-24T15:18:57;8.20;99.90
2407;DHT22;37709;53.480;9.688;2022-12-24T15:21:32;8.20;99.90
2407;DHT22;37709;53.480;9.688;2022-12-24T15:23:59;8.20;99.90
2407;DHT22;37709;53.480;9.688;2022-12-24T15:26:30;8.10;99.90
2407;DHT22;37709;53.480;9.688;2022-12-24T15:28:58;8.10;99.90
2407;DHT22;37709;53.480;9.688;2022-12-24T15:31:30;8.10;99.90
2407;DHT22;37709;53.480;9.688;2022-12-24T15:33:58;8.10;99.90
2407;DHT22;37709;53.480;9.688;2022-12-24T15:36:37;8.20;99.90
2407;DHT22;37709;53.480;9.688;2022-12-24T15:39:06;8.20;99.90
2407;DHT22;37709;53.480;9.688;2022-12-24T15:41:42;8.20;99.90
2407;DHT22;37709;53.480;9.688;2022-12-24T15:44:34;8.10;99.90
2407;DHT22;37709;53.480;9.688;2022-12-24T15:47:05;8.10;99.90
2407;DHT22;37709;53.480;9.688;2022-12-24T15:49:34;8.10;99.90
2407;DHT22;37709;53.480;9.688;2022-12-24T15:52:12;8.10;99.90
2407;DHT22;37709;53.480;9.688;2022-12-24T15:54:45;8.20;99.90
2407;DHT22;37709;53.480;9.688;2022-12-24T15:57:30;8.20;99.90
2407;DHT22;37709;53.480;9.688;2022-12-24T16:00:00;8.20;99.90
2407;DHT22;37709;53.480;9.688;2022-12-24T16:02:38;8.20;99.90
2407;DHT22;37709;53.480;9.688;2022-12-24T16:05:31;8.20;99.90
2407;DHT22;37709;53.480;9.688;2022-12-24T16:15:52;8.20;99.90
2407;DHT22;37709;53.480;9.688;2022-12-24T16:18:49;8.20;99.90
2407;DHT22;37709;53.480;9.688;2022-12-24T16:21:27;8.10;99.90
2407;DHT22;37709;53.480;9.688;2022-12-24T16:24:01;8.20;99.90
2407;DHT22;37709;53.480;9.688;2022-12-24T16:26:33;8.10;99.90
2407;DHT22;37709;53.480;9.688;2022-12-24T16:29:02;8.20;99.90
2407;DHT22;37709;53.480;9.688;2022-12-24T16:31:33;8.10;99.90
2407;DHT22;37709;53.480;9.688;2022-12-24T16:34:03;8.10;99.90
2407;DHT22;37709;53.480;9.688;2022-12-24T16:36:31;8.10;99.90
2407;DHT22;37709;53.480;9.688;2022-12-24T16:38:59;8.20;99.90
2407;DHT22;37709;53.480;9.688;2022-12-24T16:41:45;8.10;99.90
2407;DHT22;37709;53.480;9.688;2022-12-24T16:44:31;8.10;99.90
2407;DHT22;37709;53.480;9.688;2022-12-24T16:46:59;8.20;99.90
2407;DHT22;37709;53.480;9.688;2022-12-24T16:49:27;8.10;99.90
2407;DHT22;37709;53.480;9.688;2022-12-24T16:51:55;8.10;99.90
2407;DHT22;37709;53.480;9.688;2022-12-24T16:54:23;8.20;99.90
2407;DHT22;37709;53.480;9.688;2022-12-24T16:56:50;8.10;99.90
2407;DHT22;37709;53.480;9.688;2022-12-24T16:59:21;8.20;99.90
2407;DHT22;37709;53.480;9.688;2022-12-24T17:01:49;8.10;99.90
2407;DHT22;37709;53.480;9.688;2022-12-24T17:04:17;8.10;99.90
2407;DHT22;37709;53.480;9.688;2022-12-24T17:06:47;8.10;99.90
2407;DHT22;37709;53.480;9.688;2022-12-24T17:09:16;8.10;99.90
2407;DHT22;37709;53.480;9.688;2022-12-24T17:11:43;8.10;99.90
2407;DHT22;37709;53.480;9.688;2022-12-24T17:14:11;8.10;99.90
2407;DHT22;37709;53.480;9.688;2022-12-24T17:16:46;8.10;99.90
2407;DHT22;37709;53.480;9.688;2022-12-24T17:19:14;8.10;99.90
2407;DHT22;37709;53.480;9.688;2022-12-24T17:21:41;8.10;99.90
2407;DHT22;37709;53.480;9.688;2022-12-24T17:24:08;8.10;99.90
2407;DHT22;37709;53.480;9.688;2022-12-24T17:26:35;8.10;99.90
2407;DHT22;37709;53.480;9.688;2022-12-24T17:29:03;8.10;99.90
2407;DHT22;37709;53.480;9.688;2022-12-24T17:31:32;8.10;99.90
2407;DHT22;37709;53.480;9.688;2022-12-24T17:34:00;8.10;99.90
2407;DHT22;37709;53.480;9.688;2022-12-24T17:36:27;8.10;99.90
2407;DHT22;37709;53.480;9.688;2022-12-24T17:38:54;8.10;99.90
2407;DHT22;37709;53.480;9.688;2022-12-24T17:41:22;8.10;99.90
2407;DHT22;37709;53.480;9.688;2022-12-24T17:43:50;8.10;99.90
2407;DHT22;37709;53.480;9.688;2022-12-24T17:46:20;8.10;99.90
2407;DHT22;37709;53.480;9.688;2022-12-24T17:48:49;8.00;99.90
2407;DHT22;37709;53.480;9.688;2022-12-24T17:51:20;7.90;99.90
2407;DHT22;37709;53.480;9.688;2022-12-24T17:53:48;7.90;99.90
2407;DHT22;37709;53.480;9.688;2022-12-24T17:56:16;7.80;99.90
2407;DHT22;37709;53.480;9.688;2022-12-24T17:58:45;7.70;99.90
2407;DHT22;37709;53.480;9.688;2022-12-24T18:01:15;7.60;99.90
2407;DHT22;37709;53.480;9.688;2022-12-24T18:03:44;7.60;99.90
2407;DHT22;37709;53.480;9.688;2022-12-24T18:06:12;7.60;99.90
2407;DHT22;37709;53.480;9.688;2022-12-24T18:08:41;7.70;99.90
2407;DHT22;37709;53.480;9.688;2022-12-24T18:11:16;7.70;99.90
2407;DHT22;37709;53.480;9.688;2022-12-24T18:13:44;7.80;99.90
2407;DHT22;37709;53.480;9.688;2022-12-24T18:16:35;7.80;99.90
2407;DHT22;37709;53.480;9.688;2022-12-24T18:19:06;7.80;99.90